Time,TemperatureF,DewpointF,PressureIn,WindDirection,WindDirectionDegrees,WindSpeedMPH,WindSpeedGustMPH,Humidity,HourlyPrecipIn,Conditions,Clouds,dailyrainin,SoftwareType,DateUTC
2013-10-11 00:11:00,60.3,49.0,29.76,SSE,157,8.0,18.0,67,0.00,,,0.00,weatherlink.com 1.10,2013-10-11 05:11:00,
2013-10-11 00:27:00,59.9,49.0,29.77,East,100,15.0,17.0,68,0.00,,,0.00,weatherlink.com 1.10,2013-10-11 05:27:00,
2013-10-11 00:42:00,59.3,50.0,29.76,SE,145,8.0,16.0,70,0.00,,,0.00,weatherlink.com 1.10,2013-10-11 05:42:00,
2013-10-11 00:57:00,59.2,50.0,29.76,ESE,123,9.0,15.0,71,0.00,,,0.00,weatherlink.com 1.10,2013-10-11 05:57:00,
2013-10-11 01:12:00,58.8,50.0,29.76,SE,134,11.0,17.0,72,0.00,,,0.00,weatherlink.com 1.10,2013-10-11 06:12:00,
2013-10-11 01:27:00,58.9,50.0,29.77,ESE,114,14.0,18.0,73,0.00,,,0.00,weatherlink.com 1.10,2013-10-11 06:27:00,
2013-10-11 01:42:00,59.0,50.0,29.76,South,186,12.0,17.0,73,0.00,,,0.00,weatherlink.com 1.10,2013-10-11 06:42:00,
2013-10-11 01:57:00,58.8,51.0,29.76,SE,129,12.0,17.0,74,0.00,,,0.00,weatherlink.com 1.10,2013-10-11 06:57:00,
2013-10-11 02:12:00,58.6,50.0,29.76,ESE,109,8.0,16.0,74,0.00,,,0.00,weatherlink.com 1.10,2013-10-11 07:12:00,
2013-10-11 02:27:00,58.7,50.0,29.75,ESE,122,12.0,17.0,74,0.00,,,0.00,weatherlink.com 1.10,2013-10-11 07:27:00,
2013-10-11 02:42:00,58.9,51.0,29.76,ESE,102,11.0,18.0,74,0.00,,,0.00,weatherlink.com 1.10,2013-10-11 07:42:00,
2013-10-11 02:57:00,59.0,51.0,29.75,SSE,162,12.0,18.0,74,0.00,,,0.00,weatherlink.com 1.10,2013-10-11 07:57:00,
2013-10-11 03:12:00,59.3,51.0,29.76,SSE,167,12.0,18.0,73,0.00,,,0.00,weatherlink.com 1.10,2013-10-11 08:12:00,
2013-10-11 03:27:00,59.9,51.0,29.76,South,191,9.0,20.0,73,0.00,,,0.00,weatherlink.com 1.10,2013-10-11 08:27:00,
2013-10-11 03:42:00,59.7,51.0,29.76,SSE,158,14.0,19.0,73,0.00,,,0.00,weatherlink.com 1.10,2013-10-11 08:42:00,
2013-10-11 03:58:00,59.0,51.0,29.75,SE,144,11.0,16.0,75,0.00,,,0.00,weatherlink.com 1.10,2013-10-11 08:58:00,
2013-10-11 04:12:00,58.4,51.0,29.74,ESE,120,11.0,16.0,77,0.00,,,0.00,weatherlink.com 1.10,2013-10-11 09:12:00,
2013-10-11 04:27:00,58.2,51.0,29.73,SE,143,8.0,17.0,77,0.00,,,0.00,weatherlink.com 1.10,2013-10-11 09:27:00,
2013-10-11 04:42:00,57.7,51.0,29.72,South,173,11.0,17.0,79,0.00,,,0.00,weatherlink.com 1.10,2013-10-11 09:42:00,
2013-10-11 04:57:00,57.8,52.0,29.71,SSE,148,9.0,18.0,80,0.00,,,0.00,weatherlink.com 1.10,2013-10-11 09:57:00,
2013-10-11 05:12:00,58.0,52.0,29.70,SE,146,15.0,17.0,79,0.00,,,0.00,weatherlink.com 1.10,2013-10-11 10:12:00,
2013-10-11 05:27:00,57.8,52.0,29.71,SE,128,12.0,17.0,80,0.00,,,0.00,weatherlink.com 1.10,2013-10-11 10:27:00,
2013-10-11 05:42:00,57.5,52.0,29.71,SE,124,12.0,18.0,81,0.00,,,0.00,weatherlink.com 1.10,2013-10-11 10:42:00,
2013-10-11 05:57:00,57.4,52.0,29.69,SE,134,12.0,17.0,82,0.00,,,0.00,weatherlink.com 1.10,2013-10-11 10:57:00,
2013-10-11 06:12:00,57.4,52.0,29.68,East,99,17.0,17.0,82,0.00,,,0.00,weatherlink.com 1.10,2013-10-11 11:12:00,
2013-10-11 06:27:00,57.1,52.0,29.69,SE,134,12.0,16.0,83,0.00,,,0.00,weatherlink.com 1.10,2013-10-11 11:27:00,
2013-10-11 06:42:00,57.1,52.0,29.68,SE,139,11.0,21.0,83,0.00,,,0.00,weatherlink.com 1.10,2013-10-11 11:42:00,
2013-10-11 06:57:00,57.2,52.0,29.68,ESE,114,10.0,20.0,83,0.00,,,0.00,weatherlink.com 1.10,2013-10-11 11:57:00,
2013-10-11 07:13:00,56.9,52.0,29.66,SE,141,9.0,20.0,84,0.00,,,0.00,weatherlink.com 1.10,2013-10-11 12:13:00,
2013-10-11 07:28:00,56.6,52.0,29.68,SE,134,10.0,22.0,84,0.00,,,0.00,weatherlink.com 1.10,2013-10-11 12:28:00,
2013-10-11 07:43:00,56.5,52.0,29.67,SE,145,14.0,19.0,85,0.00,,,0.00,weatherlink.com 1.10,2013-10-11 12:43:00,
2013-10-11 07:58:00,57.0,52.0,29.67,SSE,168,16.0,23.0,84,0.00,,,0.00,weatherlink.com 1.10,2013-10-11 12:58:00,
2013-10-11 08:13:00,57.6,53.0,29.65,SE,145,15.0,25.0,83,0.00,,,0.00,weatherlink.com 1.10,2013-10-11 13:13:00,
2013-10-11 08:28:00,57.8,53.0,29.64,SE,136,15.0,30.0,83,0.00,,,0.00,weatherlink.com 1.10,2013-10-11 13:28:00,
2013-10-11 08:43:00,58.2,53.0,29.63,East,91,11.0,23.0,83,0.00,,,0.00,weatherlink.com 1.10,2013-10-11 13:43:00,
2013-10-11 08:58:00,58.9,53.0,29.61,SE,125,13.0,25.0,82,0.00,,,0.00,weatherlink.com 1.10,2013-10-11 13:58:00,
2013-10-11 09:13:00,59.9,54.0,29.65,South,190,16.0,32.0,80,0.00,,,0.00,weatherlink.com 1.10,2013-10-11 14:13:00,
2013-10-11 09:28:00,60.4,54.0,29.64,SE,138,13.0,29.0,80,0.00,,,0.00,weatherlink.com 1.10,2013-10-11 14:28:00,
2013-10-11 09:43:00,60.8,54.0,29.64,SE,136,18.0,30.0,79,0.00,,,0.00,weatherlink.com 1.10,2013-10-11 14:43:00,
2013-10-11 09:58:00,61.0,54.0,29.64,SSE,163,16.0,24.0,79,0.00,,,0.00,weatherlink.com 1.10,2013-10-11 14:58:00,
2013-10-11 10:13:00,61.1,55.0,29.64,ESE,113,22.0,33.0,79,0.00,,,0.00,weatherlink.com 1.10,2013-10-11 15:13:00,
2013-10-11 10:28:00,60.1,55.0,29.62,ESE,118,14.0,22.0,83,0.00,,,0.00,weatherlink.com 1.10,2013-10-11 15:28:00,
2013-10-11 10:43:00,60.2,55.0,29.62,SE,146,18.0,25.0,84,0.00,,,0.00,weatherlink.com 1.10,2013-10-11 15:43:00,
2013-10-11 10:58:00,60.5,56.0,29.61,SE,129,12.0,21.0,85,0.01,,,0.01,weatherlink.com 1.10,2013-10-11 15:58:00,
2013-10-11 11:13:00,60.9,56.0,29.61,SSE,155,14.0,24.0,84,0.01,,,0.01,weatherlink.com 1.10,2013-10-11 16:13:00,
2013-10-11 11:28:00,61.3,56.0,29.60,SE,139,26.0,30.0,82,0.01,,,0.01,weatherlink.com 1.10,2013-10-11 16:28:00,
2013-10-11 11:43:00,61.4,56.0,29.60,SE,130,24.0,32.0,82,0.01,,,0.01,weatherlink.com 1.10,2013-10-11 16:43:00,
2013-10-11 11:58:00,61.8,57.0,29.58,SE,127,20.0,35.0,83,0.00,,,0.01,weatherlink.com 1.10,2013-10-11 16:58:00,
2013-10-11 12:13:00,62.3,56.0,29.59,SSE,158,22.0,35.0,81,0.00,,,0.01,weatherlink.com 1.10,2013-10-11 17:13:00,
2013-10-11 12:28:00,62.4,57.0,29.59,SSE,162,17.0,33.0,81,0.00,,,0.01,weatherlink.com 1.10,2013-10-11 17:28:00,
2013-10-11 12:43:00,62.2,57.0,29.58,SSW,198,18.0,32.0,83,0.00,,,0.01,weatherlink.com 1.10,2013-10-11 17:43:00,
2013-10-11 12:58:00,62.3,57.0,29.58,South,186,17.0,31.0,84,0.00,,,0.01,weatherlink.com 1.10,2013-10-11 17:58:00,
2013-10-11 13:13:00,62.5,58.0,29.58,SSE,155,22.0,28.0,84,0.00,,,0.01,weatherlink.com 1.10,2013-10-11 18:13:00,
2013-10-11 13:28:00,62.8,58.0,29.57,SSE,166,17.0,26.0,83,0.00,,,0.01,weatherlink.com 1.10,2013-10-11 18:28:00,
2013-10-11 13:43:00,63.5,58.0,29.56,SE,131,21.0,35.0,82,0.00,,,0.01,weatherlink.com 1.10,2013-10-11 18:43:00,
2013-10-11 13:58:00,65.2,59.0,29.54,SSE,156,15.0,31.0,80,0.00,,,0.01,weatherlink.com 1.10,2013-10-11 18:58:00,
2013-10-11 14:13:00,66.0,59.0,29.52,SE,146,10.0,36.0,77,0.00,,,0.01,weatherlink.com 1.10,2013-10-11 19:13:00,
2013-10-11 14:28:00,66.2,58.0,29.53,SSE,153,33.0,39.0,76,0.00,,,0.01,weatherlink.com 1.10,2013-10-11 19:28:00,
2013-10-11 14:43:00,66.6,59.0,29.54,SE,143,17.0,39.0,76,0.00,,,0.01,weatherlink.com 1.10,2013-10-11 19:43:00,
2013-10-11 14:58:00,67.7,58.0,29.53,South,169,27.0,39.0,71,0.00,,,0.01,weatherlink.com 1.10,2013-10-11 19:58:00,
2013-10-11 15:14:00,68.8,58.0,29.53,SSE,167,19.0,39.0,69,0.00,,,0.01,weatherlink.com 1.10,2013-10-11 20:14:00,
2013-10-11 15:29:00,69.7,57.0,29.53,SSE,148,31.0,40.0,65,0.00,,,0.01,weatherlink.com 1.10,2013-10-11 20:29:00,
2013-10-11 15:44:00,70.7,56.0,29.54,SSE,152,21.0,36.0,61,0.00,,,0.01,weatherlink.com 1.10,2013-10-11 20:44:00,
2013-10-11 15:59:00,70.7,56.0,29.55,SSE,166,23.0,40.0,61,0.00,,,0.01,weatherlink.com 1.10,2013-10-11 20:59:00,
2013-10-11 16:14:00,71.0,57.0,29.55,SSE,156,21.0,36.0,61,0.00,,,0.01,weatherlink.com 1.10,2013-10-11 21:14:00,
2013-10-11 16:29:00,71.8,56.0,29.54,SE,146,32.0,41.0,58,0.00,,,0.01,weatherlink.com 1.10,2013-10-11 21:29:00,
2013-10-11 16:44:00,72.0,56.0,29.53,South,176,26.0,41.0,57,0.00,,,0.01,weatherlink.com 1.10,2013-10-11 21:44:00,
2013-10-11 16:59:00,72.4,56.0,29.54,SSE,160,13.0,38.0,57,0.00,,,0.01,weatherlink.com 1.10,2013-10-11 21:59:00,
2013-10-11 17:14:00,72.5,56.0,29.54,SSE,152,17.0,38.0,56,0.00,,,0.01,weatherlink.com 1.10,2013-10-11 22:14:00,
2013-10-11 17:29:00,71.9,56.0,29.54,SE,142,23.0,35.0,57,0.00,,,0.01,weatherlink.com 1.10,2013-10-11 22:29:00,
2013-10-11 17:44:00,71.4,56.0,29.54,SE,126,24.0,30.0,59,0.00,,,0.01,weatherlink.com 1.10,2013-10-11 22:44:00,
2013-10-11 17:59:00,71.2,56.0,29.55,South,172,21.0,28.0,59,0.00,,,0.01,weatherlink.com 1.10,2013-10-11 22:59:00,
2013-10-11 18:14:00,71.6,56.0,29.55,South,191,12.0,29.0,59,0.00,,,0.01,weatherlink.com 1.10,2013-10-11 23:14:00,
2013-10-11 18:29:00,71.2,56.0,29.56,SSE,149,14.0,28.0,60,0.00,,,0.01,weatherlink.com 1.10,2013-10-11 23:29:00,
2013-10-11 18:44:00,70.6,51.0,29.58,SW,215,15.0,25.0,50,0.00,,,0.01,weatherlink.com 1.10,2013-10-11 23:44:00,
2013-10-11 18:59:00,68.9,48.0,29.59,WSW,241,15.0,24.0,47,0.00,,,0.01,weatherlink.com 1.10,2013-10-11 23:59:00,
2013-10-11 19:14:00,67.1,48.0,29.60,West,262,18.0,26.0,51,0.00,,,0.01,weatherlink.com 1.10,2013-10-12 00:14:00,
2013-10-11 19:29:00,65.9,47.0,29.61,WSW,239,17.0,30.0,51,0.00,,,0.01,weatherlink.com 1.10,2013-10-12 00:29:00,
2013-10-11 19:44:00,64.9,47.0,29.62,WSW,241,17.0,24.0,53,0.00,,,0.01,weatherlink.com 1.10,2013-10-12 00:44:00,
2013-10-11 19:59:00,63.8,47.0,29.63,WSW,238,13.0,21.0,55,0.00,,,0.01,weatherlink.com 1.10,2013-10-12 00:59:00,
2013-10-11 20:14:00,63.1,47.0,29.64,WSW,241,18.0,29.0,57,0.00,,,0.01,weatherlink.com 1.10,2013-10-12 01:14:00,
2013-10-11 20:29:00,61.8,48.0,29.66,WSW,250,19.0,28.0,60,0.00,,,0.01,weatherlink.com 1.10,2013-10-12 01:29:00,
2013-10-11 20:44:00,59.8,47.0,29.67,West,274,24.0,35.0,62,0.00,,,0.01,weatherlink.com 1.10,2013-10-12 01:44:00,
2013-10-11 20:59:00,57.9,47.0,29.68,West,268,15.0,27.0,66,0.00,,,0.01,weatherlink.com 1.10,2013-10-12 01:59:00,
2013-10-11 21:14:00,56.7,46.0,29.69,WSW,257,20.0,28.0,67,0.00,,,0.01,weatherlink.com 1.10,2013-10-12 02:14:00,
2013-10-11 21:29:00,55.9,45.0,29.70,WSW,257,18.0,31.0,68,0.00,,,0.01,weatherlink.com 1.10,2013-10-12 02:29:00,
2013-10-11 21:44:00,54.8,45.0,29.71,WNW,284,21.0,34.0,69,0.00,,,0.01,weatherlink.com 1.10,2013-10-12 02:44:00,
2013-10-11 21:59:00,53.8,45.0,29.71,WSW,245,12.0,24.0,71,0.00,,,0.01,weatherlink.com 1.10,2013-10-12 02:59:00,
2013-10-11 22:14:00,52.9,44.0,29.72,WSW,250,11.0,22.0,73,0.00,,,0.01,weatherlink.com 1.10,2013-10-12 03:14:00,
2013-10-11 22:29:00,52.3,44.0,29.72,WSW,257,17.0,24.0,73,0.00,,,0.01,weatherlink.com 1.10,2013-10-12 03:29:00,
2013-10-11 22:44:00,51.7,43.0,29.73,SW,232,15.0,21.0,73,0.00,,,0.01,weatherlink.com 1.10,2013-10-12 03:44:00,
2013-10-11 22:59:00,51.1,43.0,29.74,WSW,248,12.0,20.0,74,0.00,,,0.01,weatherlink.com 1.10,2013-10-12 03:59:00,
2013-10-11 23:14:00,50.7,43.0,29.75,WSW,246,12.0,21.0,74,0.00,,,0.01,weatherlink.com 1.10,2013-10-12 04:14:00,
2013-10-11 23:29:00,50.2,42.0,29.75,WSW,248,13.0,19.0,74,0.00,,,0.01,weatherlink.com 1.10,2013-10-12 04:29:00,
2013-10-11 23:44:00,49.7,42.0,29.75,West,269,10.0,18.0,75,0.00,,,0.01,weatherlink.com 1.10,2013-10-12 04:44:00,
2013-10-11 23:59:00,49.5,42.0,29.75,West,260,11.0,15.0,75,0.00,,,0.01,weatherlink.com 1.10,2013-10-12 04:59:00,